Hastings, NE

6:31 PM CDT on April 23, 2017 (GMT -0500)
Hastings Municipal | | Change Station

Elev 1959 ft 40.60 °N, 98.43 °W | Updated 38 minutes ago

Partly Cloudy
Partly Cloudy
68 °F
Feels Like 68 °F
N
18
Wind Variable Wind from South
Gusts 28 mph

Today
High -- | Low -- °F
--% Chance of Precip.
Yesterday
High -- | Low -- °F
Precip. -- in
Pressure 29.90 in
Visibility 10.0 miles
Clouds Clear
Dew Point 26 °F
Humidity 21%
Rainfall 0.00 in
Snow Depth Not available.
6:42 AM 8:21 PM
Waning Crescent, 9% visible
METAR KHSI 232253Z AUTO 18016G24KT 10SM CLR 20/M03 A2990 RMK AO2 PK WND 19028/2211 SLP124 T02001033
Pressure 29.90 in
Visibility 10.0 miles
Clouds Clear
Dew Point 26 °F
Humidity 21%
Rainfall 0.00 in
Snow Depth Not available.
6:42 AM 8:21 PM
Waning Crescent, 9% visible
METAR KHSI 232253Z AUTO 18016G24KT 10SM CLR 20/M03 A2990 RMK AO2 PK WND 19028/2211 SLP124 T02001033

Get Severe Weather Alerts

Thanks for signing up!

Be on the lookout for a verification email in your inbox.

You'll start receiving the daily forecast at 8 AM.

×

10-Day Weather Forecast

Almanac

Astronomy

Apr. 23, 2017 Rise Set
Actual Time
Civil Twilight
Nautical Twilight
Astronomical Twilight
Moon
Length of Visible Light
Length of Day
Tomorrow will be .
, % of the Moon is Illuminated

Today's Extremes

State Highs State Lows

Community

WunderPhotos

WunderBlog® & News

Nearby

Air Quality

  Air Quality AQ Index Pollutant
Not available.

Snow Depth

Station Depth Elevation

Earthquake Activity

City Distance Mag. Time & Date
Minimum magnitude displayed is 2.5.

Coastal Water Temperatures

Place Temperature

Stations

Nearby Weather Stations

Station Location Temp. Windchill Dew Point Humidity Wind Precip. Elev Updated Type
                   

Watches & Warnings

There are currently no watches in effect.